createdAt,value
2023-02-12T00:01:24.568Z,53.19
2023-02-12T00:03:52.855Z,52.71
2023-02-12T00:06:21.286Z,54.02
2023-02-12T00:08:52.696Z,54.08
2023-02-12T00:11:26.085Z,53.63
2023-02-12T00:13:55.176Z,53.59
2023-02-12T00:16:26.317Z,53.23
2023-02-12T00:18:55.827Z,52.36
2023-02-12T00:21:25.377Z,52.39
2023-02-12T00:23:55.147Z,52.63
2023-02-12T00:26:24.394Z,52.64
2023-02-12T00:28:53.269Z,52.63
2023-02-12T00:31:24.209Z,52.74
2023-02-12T00:33:52.645Z,52.74
2023-02-12T00:36:22.582Z,52.46
2023-02-12T00:38:53.585Z,52.13
2023-02-12T00:41:24.148Z,52.84
2023-02-12T00:43:53.010Z,53.85
2023-02-12T00:46:21.790Z,54.44
2023-02-12T00:48:50.233Z,53.90
2023-02-12T00:51:18.520Z,54.62
2023-02-12T00:53:46.825Z,54.45
2023-02-12T00:56:15.103Z,53.79
2023-02-12T00:58:44.745Z,54.00
2023-02-12T01:01:13.062Z,54.65
2023-02-12T01:03:41.444Z,54.52
2023-02-12T01:06:10.353Z,53.91
2023-02-12T01:08:38.659Z,53.18
2023-02-12T01:11:07.576Z,53.41
2023-02-12T01:13:38.058Z,53.71
2023-02-12T01:16:12.781Z,54.06
2023-02-12T01:18:41.468Z,55.24
2023-02-12T01:21:15.013Z,54.38
2023-02-12T01:23:44.048Z,53.94
2023-02-12T01:26:13.648Z,53.03
2023-02-12T01:28:43.292Z,53.49
2023-02-12T01:31:16.082Z,53.43
2023-02-12T01:33:44.873Z,53.40
2023-02-12T01:36:13.135Z,53.92
2023-02-12T01:38:41.463Z,53.52
2023-02-12T01:41:12.013Z,53.42
2023-02-12T01:43:41.444Z,52.61
2023-02-12T01:46:14.203Z,53.90
2023-02-12T01:48:46.617Z,54.64
2023-02-12T01:51:21.382Z,55.04
2023-02-12T01:53:55.075Z,54.87
2023-02-12T01:56:25.325Z,54.78
2023-02-12T01:58:57.844Z,55.28
2023-02-12T02:01:29.044Z,55.52
2023-02-12T02:04:02.598Z,54.94
2023-02-12T02:06:35.542Z,56.11
2023-02-12T02:09:05.158Z,57.48
2023-02-12T02:11:50.988Z,57.08
2023-02-12T02:14:34.742Z,56.61
2023-02-12T02:17:14.354Z,56.36
2023-02-12T02:20:26.817Z,56.28
2023-02-12T02:23:15.882Z,56.78
2023-02-12T02:26:06.496Z,56.91
2023-02-12T02:28:54.358Z,56.03
2023-02-12T02:31:31.965Z,56.54
2023-02-12T02:34:10.068Z,57.39
2023-02-12T02:36:58.295Z,57.76
2023-02-12T02:39:34.142Z,58.23
2023-02-12T02:42:09.917Z,58.54
2023-02-12T02:44:45.360Z,59.00
2023-02-12T02:47:16.422Z,58.02
2023-02-12T02:49:49.589Z,56.50
2023-02-12T02:52:22.290Z,56.41
2023-02-12T02:54:54.703Z,57.25
2023-02-12T02:57:32.349Z,57.11
2023-02-12T03:00:06.871Z,56.63
2023-02-12T03:02:39.704Z,57.46
2023-02-12T03:05:12.525Z,57.08
2023-02-12T03:07:45.843Z,56.77
2023-02-12T03:10:18.583Z,58.16
2023-02-12T03:12:53.302Z,57.70
2023-02-12T03:15:28.105Z,56.75
2023-02-12T03:18:00.113Z,56.31
2023-02-12T03:20:32.533Z,56.35
2023-02-12T03:23:08.891Z,55.92
2023-02-12T03:25:42.173Z,57.42
2023-02-12T03:28:17.490Z,57.22
2023-02-12T03:30:52.861Z,58.11
2023-02-12T03:33:32.639Z,56.87
2023-02-12T03:36:04.048Z,56.71
2023-02-12T03:38:40.267Z,56.22
2023-02-12T03:41:13.155Z,56.30
2023-02-12T03:43:50.586Z,56.56
2023-02-12T03:46:24.072Z,56.92
2023-02-12T03:49:00.734Z,56.88
2023-02-12T03:51:34.461Z,57.15
2023-02-12T03:54:03.950Z,56.51
2023-02-12T03:56:39.199Z,57.06
2023-02-12T03:59:07.699Z,57.18
2023-02-12T04:01:37.079Z,57.26
2023-02-12T04:04:08.720Z,57.26
2023-02-12T04:06:37.575Z,57.21
2023-02-12T04:09:08.510Z,56.35
2023-02-12T04:11:49.477Z,56.17
2023-02-12T04:14:26.243Z,57.82
2023-02-12T04:17:04.512Z,58.03
2023-02-12T04:19:41.726Z,58.32
2023-02-12T04:22:21.080Z,57.28
2023-02-12T04:24:59.609Z,57.46
2023-02-12T04:27:36.959Z,57.34
2023-02-12T04:30:10.364Z,56.96
2023-02-12T04:32:43.188Z,57.11
2023-02-12T04:35:21.699Z,57.05
2023-02-12T04:37:53.329Z,57.89
2023-02-12T04:40:23.281Z,59.01
2023-02-12T04:42:54.344Z,58.46
2023-02-12T04:45:27.172Z,58.55
2023-02-12T04:47:55.638Z,58.04
2023-02-12T04:50:25.961Z,57.82
2023-02-12T04:52:54.354Z,58.22
2023-02-12T04:55:22.697Z,57.89
2023-02-12T04:57:50.970Z,58.02
2023-02-12T05:00:19.867Z,59.50
2023-02-12T05:02:48.258Z,59.43
2023-02-12T05:05:16.652Z,58.56
2023-02-12T05:07:46.342Z,60.01
2023-02-12T05:10:14.813Z,59.22
2023-02-12T05:12:43.129Z,59.58
2023-02-12T05:15:14.239Z,58.88
2023-02-12T05:17:42.507Z,57.76
2023-02-12T05:20:12.191Z,58.66
2023-02-12T05:22:40.658Z,58.53
2023-02-12T05:25:10.521Z,58.28
2023-02-12T05:27:38.890Z,58.03
2023-02-12T05:30:09.623Z,57.92
2023-02-12T05:32:38.064Z,57.84
2023-02-12T05:35:07.146Z,57.85
2023-02-12T05:37:36.449Z,57.99
2023-02-12T05:40:05.882Z,58.41
2023-02-12T05:42:35.648Z,58.33
2023-02-12T05:45:03.847Z,58.58
2023-02-12T05:47:32.141Z,58.55
2023-02-12T05:50:00.364Z,59.79
2023-02-12T05:52:28.567Z,58.50
2023-02-12T05:54:56.798Z,58.68
2023-02-12T05:57:25.104Z,60.26
2023-02-12T05:59:54.964Z,62.03
2023-02-12T06:02:23.324Z,62.62
2023-02-12T06:04:51.633Z,63.43
2023-02-12T06:07:19.908Z,63.42
2023-02-12T06:09:48.305Z,61.68
2023-02-12T06:12:16.598Z,61.08
2023-02-12T06:14:44.926Z,61.33
2023-02-12T06:17:14.806Z,60.68
2023-02-12T06:19:43.160Z,60.49
2023-02-12T06:22:11.490Z,60.92
2023-02-12T06:24:39.793Z,61.15
2023-02-12T06:27:08.121Z,60.33
2023-02-12T06:29:36.352Z,59.08
2023-02-12T06:32:04.857Z,59.33
2023-02-12T06:34:39.358Z,58.70
2023-02-12T06:37:07.658Z,58.14
2023-02-12T06:39:35.923Z,57.97
2023-02-12T06:42:04.302Z,57.15
2023-02-12T06:44:32.825Z,56.93
2023-02-12T06:47:01.176Z,56.80
2023-02-12T06:49:29.623Z,56.58
2023-02-12T06:52:00.642Z,56.00
2023-02-12T06:54:30.584Z,56.70
2023-02-12T06:56:58.872Z,56.15
2023-02-12T06:59:27.136Z,55.61
2023-02-12T07:01:55.467Z,54.83
2023-02-12T07:04:23.702Z,54.74
2023-02-12T07:06:52.269Z,54.30
2023-02-12T07:09:22.058Z,54.31
2023-02-12T07:11:50.331Z,54.86
2023-02-12T07:14:19.138Z,55.34
2023-02-12T07:16:47.493Z,54.85
2023-02-12T07:19:17.026Z,53.95
2023-02-12T07:21:45.538Z,56.38
2023-02-12T07:24:14.305Z,58.19
2023-02-12T07:26:43.981Z,58.52
2023-02-12T07:29:12.869Z,58.52
2023-02-12T07:31:43.103Z,58.44
2023-02-12T07:34:12.053Z,57.16
2023-02-12T07:36:40.630Z,55.90
2023-02-12T07:39:08.899Z,54.67
2023-02-12T07:41:37.678Z,56.74
2023-02-12T07:44:10.487Z,54.98
2023-02-12T07:46:41.497Z,55.99
2023-02-12T07:49:13.767Z,54.47
2023-02-12T07:51:42.362Z,55.51
2023-02-12T07:54:12.449Z,54.30
2023-02-12T07:56:47.481Z,54.36
2023-02-12T07:59:19.189Z,55.47
2023-02-12T08:01:48.912Z,56.10
2023-02-12T08:04:18.900Z,56.50
2023-02-12T08:06:49.456Z,55.74
2023-02-12T08:09:19.856Z,56.71
2023-02-12T08:11:48.710Z,56.75
2023-02-12T08:14:19.749Z,56.25
2023-02-12T08:16:50.067Z,54.83
2023-02-12T08:19:22.539Z,54.64
2023-02-12T08:21:54.680Z,55.49
2023-02-12T08:24:23.356Z,56.15
2023-02-12T08:26:52.420Z,55.63
2023-02-12T08:29:24.382Z,56.13
2023-02-12T08:31:57.280Z,54.84
2023-02-12T08:34:27.768Z,54.42
2023-02-12T08:36:56.606Z,54.03
2023-02-12T08:39:26.318Z,54.35
2023-02-12T08:41:55.792Z,53.82
2023-02-12T08:44:26.116Z,53.19
2023-02-12T08:46:56.186Z,53.76
2023-02-12T08:49:27.734Z,53.14
2023-02-12T08:51:57.874Z,52.96
2023-02-12T08:54:28.511Z,53.16
2023-02-12T08:56:57.892Z,51.67
2023-02-12T08:59:45.588Z,49.73
2023-02-12T09:02:13.866Z,50.91
2023-02-12T09:04:42.219Z,50.12
2023-02-12T09:07:11.025Z,48.95
2023-02-12T09:09:39.371Z,48.05
2023-02-12T09:12:10.068Z,47.09
2023-02-12T09:14:42.764Z,45.95
2023-02-12T09:17:11.003Z,47.83
2023-02-12T09:19:39.208Z,47.63
2023-02-12T09:22:07.574Z,49.02
2023-02-12T09:24:37.640Z,50.62
2023-02-12T09:27:06.723Z,51.97
2023-02-12T09:29:34.891Z,50.88
2023-02-12T09:32:06.702Z,50.22
2023-02-12T09:34:36.349Z,50.63
2023-02-12T09:37:04.652Z,50.74
2023-02-12T09:39:32.925Z,48.80
2023-02-12T09:42:19.611Z,48.86
2023-02-12T09:44:56.571Z,48.12
2023-02-12T09:47:32.125Z,48.95
2023-02-12T09:50:33.156Z,48.27
2023-02-12T09:53:02.860Z,47.32
2023-02-12T09:55:33.044Z,47.29
2023-02-12T09:58:04.472Z,45.22
2023-02-12T10:00:33.468Z,45.29
2023-02-12T10:03:06.540Z,43.33
2023-02-12T10:05:42.375Z,43.15
2023-02-12T10:08:35.412Z,43.74
2023-02-12T10:11:22.554Z,43.44
2023-02-12T10:14:04.214Z,43.87
2023-02-12T10:16:44.144Z,43.77
2023-02-12T10:19:29.931Z,44.98
2023-02-12T10:22:06.268Z,44.10
2023-02-12T10:24:50.267Z,42.85
2023-02-12T10:27:37.145Z,42.57
2023-02-12T10:30:15.274Z,44.59
2023-02-12T10:32:49.826Z,45.74
2023-02-12T10:35:22.579Z,46.71
2023-02-12T10:37:56.552Z,47.04
2023-02-12T10:40:28.564Z,46.08
2023-02-12T10:42:58.649Z,46.00
2023-02-12T10:45:30.955Z,45.16
2023-02-12T10:48:09.308Z,45.04
2023-02-12T10:50:57.354Z,45.00
2023-02-12T10:53:27.946Z,44.34
2023-02-12T10:56:13.470Z,42.90
2023-02-12T10:58:54.762Z,41.20
2023-02-12T11:01:27.413Z,39.64
2023-02-12T11:03:56.546Z,38.15
2023-02-12T11:06:29.623Z,37.99
2023-02-12T11:08:59.376Z,37.81
2023-02-12T11:11:31.228Z,38.18
2023-02-12T11:14:01.936Z,36.79
2023-02-12T11:16:32.990Z,36.01
2023-02-12T11:19:06.425Z,35.81
2023-02-12T11:21:37.765Z,35.13
2023-02-12T11:24:31.839Z,36.71
2023-02-12T11:27:14.704Z,36.55
2023-02-12T11:29:44.741Z,35.36
2023-02-12T11:32:19.441Z,34.82
2023-02-12T11:35:07.568Z,33.84
2023-02-12T11:37:43.535Z,33.73
2023-02-12T11:40:20.481Z,33.98
2023-02-12T11:42:53.449Z,35.58
2023-02-12T11:45:26.983Z,35.48
2023-02-12T11:47:55.531Z,35.42
2023-02-12T11:50:28.240Z,34.98
2023-02-12T11:53:02.488Z,34.89
2023-02-12T11:55:35.057Z,34.44
2023-02-12T11:58:06.156Z,33.42
2023-02-12T12:00:38.576Z,32.73
2023-02-12T12:03:14.515Z,32.37
2023-02-12T12:05:49.547Z,33.44
2023-02-12T12:08:25.272Z,32.83
2023-02-12T12:11:01.192Z,34.56
2023-02-12T12:13:35.006Z,34.83
2023-02-12T12:16:32.513Z,33.66
2023-02-12T12:19:24.561Z,34.90
2023-02-12T12:22:01.907Z,35.60
2023-02-12T12:24:40.724Z,36.33
2023-02-12T12:27:46.160Z,36.10
2023-02-12T12:30:23.393Z,36.31
2023-02-12T12:32:54.849Z,35.94
2023-02-12T12:35:33.662Z,35.59
2023-02-12T12:38:06.224Z,34.11
2023-02-12T12:40:49.091Z,33.46
2023-02-12T12:43:27.726Z,33.75
2023-02-12T12:46:25.130Z,32.63
2023-02-12T12:49:30.243Z,35.37
2023-02-12T12:52:09.187Z,35.74
2023-02-12T12:54:53.543Z,36.35
2023-02-12T12:57:38.458Z,36.04
2023-02-12T13:00:30.830Z,34.71
2023-02-12T13:03:32.006Z,33.20
2023-02-12T13:06:26.511Z,31.33
2023-02-12T13:09:24.371Z,31.74
2023-02-12T13:12:09.973Z,30.80
2023-02-12T13:14:46.656Z,31.05
2023-02-12T13:17:24.757Z,31.39
2023-02-12T13:20:06.001Z,30.29
2023-02-12T13:22:42.618Z,30.74
2023-02-12T13:25:24.083Z,31.61
2023-02-12T13:27:54.304Z,32.48
2023-02-12T13:30:30.221Z,32.99
2023-02-12T13:33:08.585Z,33.26
2023-02-12T13:35:41.885Z,33.63
2023-02-12T13:38:16.424Z,34.21
2023-02-12T13:40:44.953Z,34.30
2023-02-12T13:43:30.075Z,34.63
2023-02-12T13:46:07.049Z,36.05
2023-02-12T13:51:44.952Z,36.22
2023-02-12T13:54:48.557Z,36.35
2023-02-12T13:57:19.066Z,34.54
2023-02-12T13:59:50.246Z,34.87
2023-02-12T14:02:46.277Z,35.28
2023-02-12T14:05:22.745Z,34.56
2023-02-12T14:07:53.050Z,35.47
2023-02-12T14:10:27.998Z,36.52
2023-02-12T14:13:08.768Z,35.80
2023-02-12T14:15:39.946Z,36.12
2023-02-12T14:18:25.651Z,35.48
2023-02-12T14:21:42.221Z,35.79
2023-02-12T14:24:43.674Z,35.63
2023-02-12T14:27:33.761Z,36.13
2023-02-12T14:30:33.075Z,36.36
2023-02-12T14:33:25.924Z,36.51
2023-02-12T14:36:18.686Z,36.75
2023-02-12T14:39:04.045Z,36.61
2023-02-12T14:41:41.963Z,36.84
2023-02-12T14:44:47.189Z,35.68
2023-02-12T14:47:45.496Z,36.95
2023-02-12T14:50:21.628Z,35.99
2023-02-12T14:52:56.021Z,36.80
2023-02-12T14:55:28.504Z,36.61
2023-02-12T14:58:00.736Z,37.34
2023-02-12T15:00:35.536Z,37.73
2023-02-12T15:03:16.502Z,37.33
2023-02-12T15:05:50.449Z,37.60
2023-02-12T15:08:29.858Z,38.18
2023-02-12T15:11:05.153Z,39.04
2023-02-12T15:13:45.769Z,38.35
2023-02-12T15:16:23.425Z,38.85
2023-02-12T15:18:56.876Z,38.72
2023-02-12T15:21:27.859Z,38.83
2023-02-12T15:24:04.099Z,38.79
2023-02-12T15:26:34.891Z,38.46
2023-02-12T15:29:05.297Z,39.04
2023-02-12T15:31:34.976Z,39.34
2023-02-12T15:34:06.263Z,39.87
2023-02-12T15:36:38.185Z,39.02
2023-02-12T15:39:10.423Z,39.51
2023-02-12T15:41:42.061Z,40.90
2023-02-12T15:44:22.823Z,40.87
2023-02-12T15:47:04.768Z,40.36
2023-02-12T15:49:38.294Z,40.89
2023-02-12T15:52:11.505Z,40.82
2023-02-12T15:54:41.629Z,41.49
2023-02-12T15:57:14.524Z,40.92
2023-02-12T15:59:43.131Z,41.02
2023-02-12T16:02:22.153Z,41.31
2023-02-12T16:04:50.514Z,41.74
2023-02-12T16:07:21.252Z,40.91
2023-02-12T16:09:53.845Z,41.57
2023-02-12T16:12:26.020Z,42.10
2023-02-12T16:14:56.314Z,41.90
2023-02-12T16:17:29.494Z,41.20
2023-02-12T16:20:00.264Z,41.48
2023-02-12T16:22:32.368Z,41.67
2023-02-12T16:25:02.608Z,42.33
2023-02-12T16:27:32.730Z,42.00
2023-02-12T16:30:02.975Z,42.83
2023-02-12T16:32:36.315Z,42.88
2023-02-12T16:35:24.316Z,43.56
2023-02-12T16:37:56.499Z,43.00
2023-02-12T16:40:33.264Z,43.43
2023-02-12T16:43:04.969Z,44.24
2023-02-12T16:45:44.028Z,45.85
2023-02-12T16:48:19.486Z,44.85
2023-02-12T16:50:51.133Z,44.96
2023-02-12T16:53:47.626Z,44.46
2023-02-12T16:56:21.218Z,45.06
2023-02-12T16:58:51.241Z,45.24
2023-02-12T17:01:23.652Z,44.57
2023-02-12T17:03:52.478Z,44.43
2023-02-12T17:06:22.320Z,44.74
2023-02-12T17:08:50.796Z,45.14
2023-02-12T17:11:21.285Z,44.28
2023-02-12T17:13:52.197Z,44.55
2023-02-12T17:16:31.161Z,44.24
2023-02-12T17:19:00.195Z,45.03
2023-02-12T17:21:31.867Z,45.10
2023-02-12T17:24:02.259Z,45.43
2023-02-12T17:26:32.001Z,45.14
2023-02-12T17:29:05.635Z,44.58
2023-02-12T17:31:34.280Z,44.04
2023-02-12T17:34:02.965Z,43.69
2023-02-12T17:36:31.729Z,44.13
2023-02-12T17:39:00.764Z,45.18
2023-02-12T17:41:33.879Z,44.26
2023-02-12T17:44:02.561Z,44.16
2023-02-12T17:46:31.629Z,44.16
2023-02-12T17:49:00.217Z,45.02
2023-02-12T17:51:28.738Z,44.72
2023-02-12T17:53:57.010Z,44.27
2023-02-12T17:56:26.062Z,44.37
2023-02-12T17:58:55.833Z,44.68
2023-02-12T18:01:25.952Z,44.43
2023-02-12T18:03:55.963Z,44.76
2023-02-12T18:06:27.263Z,45.16
2023-02-12T18:08:57.170Z,45.04
2023-02-12T18:11:29.202Z,45.90
2023-02-12T18:13:59.824Z,46.30
2023-02-12T18:16:30.963Z,46.36
2023-02-12T18:19:00.044Z,46.29
2023-02-12T18:21:31.479Z,45.72
2023-02-12T18:23:59.751Z,46.02
2023-02-12T18:26:27.988Z,46.17
2023-02-12T18:28:59.959Z,47.17
2023-02-12T18:31:29.358Z,46.89
2023-02-12T18:33:57.760Z,46.78
2023-02-12T18:36:26.224Z,47.63
2023-02-12T18:38:54.778Z,47.53
2023-02-12T18:41:25.615Z,48.16
2023-02-12T18:43:55.017Z,48.89
2023-02-12T18:46:27.222Z,48.94
2023-02-12T18:48:56.112Z,48.08
2023-02-12T18:51:26.697Z,47.80
2023-02-12T18:54:01.598Z,47.50
2023-02-12T18:56:30.869Z,47.42
2023-02-12T18:59:00.589Z,48.03
2023-02-12T19:01:30.592Z,47.07
2023-02-12T19:04:00.734Z,46.85
2023-02-12T19:06:31.444Z,46.98
2023-02-12T19:09:01.546Z,47.46
2023-02-12T19:11:30.904Z,46.63
2023-02-12T19:13:59.216Z,46.40
2023-02-12T19:16:29.473Z,47.01
2023-02-12T19:19:01.521Z,47.17
2023-02-12T19:21:30.929Z,47.90
2023-02-12T19:24:01.404Z,47.47
2023-02-12T19:26:30.795Z,46.90
2023-02-12T19:28:59.523Z,47.27
2023-02-12T19:31:34.891Z,47.43
2023-02-12T19:34:05.585Z,46.84
2023-02-12T19:36:37.960Z,46.68
2023-02-12T19:39:07.166Z,47.38
2023-02-12T19:41:41.088Z,47.14
2023-02-12T19:44:17.218Z,47.63
2023-02-12T19:46:48.473Z,47.42
2023-02-12T19:49:19.152Z,47.35
2023-02-12T19:51:47.732Z,46.91
2023-02-12T19:54:17.776Z,48.29
2023-02-12T19:56:48.218Z,47.90
2023-02-12T19:59:18.457Z,48.19
2023-02-12T20:01:49.407Z,48.97
2023-02-12T20:04:19.766Z,49.21
2023-02-12T20:06:51.107Z,49.12
2023-02-12T20:09:22.796Z,49.70
2023-02-12T20:11:51.882Z,49.87
2023-02-12T20:14:25.319Z,50.06
2023-02-12T20:16:58.605Z,51.03
2023-02-12T20:19:30.955Z,51.48
2023-02-12T20:22:01.729Z,51.92
2023-02-12T20:24:32.782Z,51.25
2023-02-12T20:27:02.967Z,50.70
2023-02-12T20:29:31.534Z,51.35
2023-02-12T20:32:01.344Z,51.03
2023-02-12T20:34:31.526Z,50.90
2023-02-12T20:37:03.404Z,52.21
2023-02-12T20:39:31.596Z,52.17
2023-02-12T20:41:59.972Z,51.99
2023-02-12T20:44:28.289Z,51.77
2023-02-12T20:46:58.052Z,51.70
2023-02-12T20:49:28.174Z,52.13
2023-02-12T20:51:56.470Z,52.74
2023-02-12T20:54:25.063Z,53.63
2023-02-12T20:56:53.513Z,53.47
2023-02-12T20:59:21.789Z,53.47
2023-02-12T21:01:50.352Z,53.98
2023-02-12T21:04:20.168Z,54.16
2023-02-12T21:06:49.862Z,54.45
2023-02-12T21:09:19.640Z,54.08
2023-02-12T21:11:48.474Z,53.07
2023-02-12T21:14:22.830Z,52.42
2023-02-12T21:16:53.708Z,51.71
2023-02-12T21:19:22.023Z,51.61
2023-02-12T21:21:51.806Z,51.24
2023-02-12T21:24:22.014Z,51.24
2023-02-12T21:26:51.139Z,51.08
2023-02-12T21:29:20.270Z,49.59
2023-02-12T21:31:50.456Z,50.96
2023-02-12T21:34:21.273Z,53.07
2023-02-12T21:36:52.144Z,53.77
2023-02-12T21:39:25.075Z,53.49
2023-02-12T21:41:54.913Z,52.75
2023-02-12T21:44:24.681Z,52.89
2023-02-12T21:46:52.988Z,53.04
2023-02-12T21:49:26.716Z,52.85
2023-02-12T21:51:58.269Z,52.03
2023-02-12T21:54:27.333Z,51.08
2023-02-12T21:56:56.532Z,51.80
2023-02-12T21:59:25.545Z,52.30
2023-02-12T22:01:55.507Z,50.78
2023-02-12T22:04:23.805Z,50.74
2023-02-12T22:06:55.271Z,51.10
2023-02-12T22:09:25.270Z,51.53
2023-02-12T22:11:53.850Z,51.70
2023-02-12T22:14:23.304Z,51.28
2023-02-12T22:16:51.677Z,51.77
2023-02-12T22:19:20.053Z,53.70
2023-02-12T22:21:51.925Z,53.74
2023-02-12T22:24:20.567Z,54.15
2023-02-12T22:26:50.350Z,53.85
2023-02-12T22:29:19.040Z,53.10
2023-02-12T22:31:48.186Z,53.94
2023-02-12T22:34:19.288Z,55.25
2023-02-12T22:36:50.921Z,52.76
2023-02-12T22:39:19.474Z,52.87
2023-02-12T22:41:49.544Z,52.04
2023-02-12T22:44:21.012Z,52.38
2023-02-12T22:46:49.697Z,52.77
2023-02-12T22:49:18.469Z,54.85
2023-02-12T22:51:47.115Z,54.67
2023-02-12T22:54:16.870Z,55.31
2023-02-12T22:56:45.784Z,53.15
2023-02-12T22:59:18.010Z,54.33
2023-02-12T23:01:46.323Z,53.54
2023-02-12T23:04:17.241Z,53.66
2023-02-12T23:06:46.708Z,53.30
2023-02-12T23:09:19.075Z,56.50
2023-02-12T23:11:48.151Z,56.03
2023-02-12T23:14:17.998Z,55.95
2023-02-12T23:16:46.562Z,53.59
2023-02-12T23:19:15.708Z,52.69
2023-02-12T23:21:44.254Z,53.75
2023-02-12T23:24:15.209Z,53.00
2023-02-12T23:26:43.624Z,53.90
2023-02-12T23:29:12.095Z,52.37
2023-02-12T23:31:41.850Z,52.60
2023-02-12T23:34:10.365Z,54.38
2023-02-12T23:36:38.624Z,55.46
2023-02-12T23:39:07.124Z,56.13
2023-02-12T23:41:35.640Z,57.06
2023-02-12T23:44:04.040Z,57.11
2023-02-12T23:46:32.467Z,56.67
2023-02-12T23:49:02.201Z,58.63
2023-02-12T23:51:30.587Z,55.68
2023-02-12T23:53:58.940Z,55.34
2023-02-12T23:56:27.260Z,55.11
2023-02-12T23:58:57.497Z,54.06
